Time;durP1;ratioP1;P1;durP2;ratioP2;P2;SDS_P1;SDS_P2;PMS_P1;PMS_P2;Temp;Humidity;BMP_temperature;BMP_pressure;BME280_temperature;BME280_humidity;BME280_pressure;Samples;Min_cycle;Max_cycle;Signal;HPM_P1;HPM_P2
2024/02/12 00:08:54;;;;;;;35.03;24.57;;;8.70;99.90;;;;;;5683950;24;20319;-83
2024/02/12 00:38:54;;;;;;;34.10;25.33;;;8.60;99.90;;;;;;5563744;25;20317;-85
2024/02/12 01:04:08;;;;;;;33.80;24.17;;;8.60;99.90;;;;;;5665791;24;20568;-88
2024/02/12 02:00:30;;;;;;;30.20;20.20;;;8.80;99.90;;;;;;5751583;24;20214;-83
2024/02/12 02:25:53;;;;;;;33.47;22.50;;;9.00;99.90;;;;;;5843375;24;20666;-83
2024/02/12 02:46:13;;;;;;;29.60;21.87;;;9.10;99.90;;;;;;5986442;23;20185;-83
2024/02/12 03:16:35;;;;;;;33.47;23.20;;;8.90;99.90;;;;;;5816014;24;20311;-86
2024/02/12 03:36:46;;;;;;;36.63;24.30;;;8.90;99.90;;;;;;5880301;23;20533;-85
2024/02/12 04:06:43;;;;;;;38.57;26.27;;;8.80;99.90;;;;;;5797253;24;20333;-86
2024/02/12 04:27:20;;;;;;;39.03;26.13;;;8.90;99.90;;;;;;5766899;24;20533;-85
2024/02/12 04:47:59;;;;;;;40.80;25.53;;;8.80;99.90;;;;;;5874714;23;20191;-84
2024/02/12 04:52:19;;;;;;;37.73;26.37;;;8.80;99.90;;;;;;5906684;23;21188;-85
2024/02/12 05:13:19;;;;;;;34.07;23.10;;;8.70;99.90;;;;;;5936406;23;20766;-87
2024/02/12 05:38:28;;;;;;;28.53;20.53;;;8.90;99.90;;;;;;5870774;23;20570;-82
2024/02/12 06:09:03;;;;;;;19.00;14.27;;;8.80;99.90;;;;;;5695823;24;20244;-82
2024/02/12 06:39:21;;;;;;;11.17;9.27;;;8.90;99.90;;;;;;5587503;24;20184;-81
2024/02/12 07:04:38;;;;;;;9.17;7.63;;;9.00;99.90;;;;;;5552442;24;20184;-84
2024/02/12 08:40:50;;;;;;;6.50;5.90;;;9.80;99.90;;;;;;5445302;25;20517;-83
2024/02/12 08:56:17;;;;;;;6.17;5.57;;;9.70;99.90;;;;;;5625975;24;20362;-84
2024/02/12 09:26:57;;;;;;;5.97;5.37;;;9.30;99.90;;;;;;5729396;24;20461;-83
2024/02/12 09:31:17;;;;;;;6.33;5.73;;;9.30;99.90;;;;;;5776093;24;20220;-83
2024/02/12 09:57:15;;;;;;;7.20;6.00;;;9.40;99.90;;;;;;5838257;24;20711;-82
2024/02/12 10:32:37;;;;;;;7.67;5.77;;;9.80;99.90;;;;;;5755231;24;20304;-85
2024/02/12 11:03:04;;;;;;;6.20;5.70;;;10.00;99.90;;;;;;5805948;24;20315;-83
2024/02/12 11:33:31;;;;;;;7.87;6.10;;;9.90;99.90;;;;;;5722792;24;20221;-86
2024/02/12 12:34:32;;;;;;;5.67;5.07;;;9.90;99.90;;;;;;5587002;24;20180;-81
2024/02/12 13:04:51;;;;;;;8.13;6.30;;;10.40;99.90;;;;;;5567469;24;20297;-84
2024/02/12 14:00:43;;;;;;;7.13;6.43;;;9.90;99.90;;;;;;5595958;24;20335;-83
2024/02/12 14:05:14;;;;;;;8.20;6.50;;;9.80;99.90;;;;;;5546971;25;20565;-83
2024/02/12 14:35:48;;;;;;;10.03;7.07;;;9.70;99.90;;;;;;5602915;24;20706;-81
2024/02/12 15:01:31;;;;;;;8.17;7.00;;;9.50;99.90;;;;;;5722912;24;20196;-85
2024/02/12 15:32:06;;;;;;;9.40;8.27;;;9.10;99.90;;;;;;5644217;24;21122;-85
2024/02/12 15:52:25;;;;;;;18.57;12.70;;;9.20;99.90;;;;;;5625489;24;21029;-84
2024/02/12 16:37:57;;;;;;;12.20;9.70;;;9.20;99.90;;;;;;5784360;24;20413;-87
2024/02/12 16:58:22;;;;;;;11.67;8.43;;;9.00;99.90;;;;;;5698798;24;20651;-85
2024/02/12 18:39:47;;;;;;;5.00;4.43;;;8.50;99.90;;;;;;5863464;23;20567;-85
2024/02/12 18:44:08;;;;;;;5.40;4.50;;;8.40;99.90;;;;;;5744558;24;20506;-85
2024/02/12 19:04:51;;;;;;;4.70;4.30;;;8.60;99.90;;;;;;5613687;25;20500;-85
2024/02/12 19:40:32;;;;;;;5.37;4.83;;;8.40;99.90;;;;;;5839923;23;20233;-85
2024/02/12 20:10:59;;;;;;;6.57;5.87;;;8.20;99.90;;;;;;5651634;24;20536;-86
2024/02/12 21:01:24;;;;;;;9.87;7.70;;;8.10;99.90;;;;;;5585826;24;20646;-84
2024/02/12 22:07:05;;;;;;;10.23;8.30;;;8.50;99.90;;;;;;5766460;24;20422;-85
2024/02/12 22:43:07;;;;;;;10.90;8.00;;;8.40;99.90;;;;;;5815267;24;20200;-87
2024/02/12 23:13:25;;;;;;;11.63;8.13;;;8.40;99.90;;;;;;5825625;23;20187;-83
2024/02/12 23:58:39;;;;;;;10.63;7.63;;;8.40;99.90;;;;;;5811716;23;20654;-83
